Time;durP1;ratioP1;P1;durP2;ratioP2;P2;SDS_P1;SDS_P2;PMS_P1;PMS_P2;Temp;Humidity;BMP_temperature;BMP_pressure;BME280_temperature;BME280_humidity;BME280_pressure;Samples;Min_cycle;Max_cycle;Signal;HPM_P1;HPM_P2
2022/10/17 00:02:06;;;;;;;5.47;3.00;;;12.90;99.90;;;;;;5053460;28;20218;-90
2022/10/17 00:04:33;;;;;;;3.57;2.73;;;12.90;99.90;;;;;;5053317;28;20750;-89
2022/10/17 00:07:00;;;;;;;3.57;2.77;;;13.00;99.90;;;;;;5044216;28;20206;-90
2022/10/17 00:09:29;;;;;;;3.03;2.73;;;13.00;99.90;;;;;;5051194;28;20203;-89
2022/10/17 00:11:56;;;;;;;3.43;3.07;;;12.90;99.90;;;;;;5045915;28;20233;-88
2022/10/17 00:14:23;;;;;;;3.10;2.80;;;12.70;99.90;;;;;;5052752;28;20723;-88
2022/10/17 00:16:50;;;;;;;3.30;2.97;;;12.60;99.90;;;;;;5052810;28;20202;-90
2022/10/17 00:19:17;;;;;;;3.33;2.70;;;12.60;99.90;;;;;;5050545;28;20281;-89
2022/10/17 00:21:44;;;;;;;4.37;2.70;;;12.80;99.90;;;;;;5053405;28;20611;-89
2022/10/17 00:24:11;;;;;;;3.07;2.83;;;12.80;99.90;;;;;;5045114;28;20262;-89
2022/10/17 00:26:40;;;;;;;3.83;2.70;;;12.90;99.90;;;;;;5038266;28;20231;-89
2022/10/17 00:29:07;;;;;;;4.63;2.67;;;12.80;99.90;;;;;;5052301;28;20206;-89
2022/10/17 00:31:35;;;;;;;3.77;2.90;;;12.60;99.90;;;;;;5040296;28;20256;-89
2022/10/17 00:34:02;;;;;;;3.33;3.03;;;12.40;99.90;;;;;;5050752;28;20242;-89
2022/10/17 00:36:29;;;;;;;3.00;2.70;;;12.40;99.90;;;;;;5052264;28;20211;-88
2022/10/17 00:38:59;;;;;;;4.67;3.20;;;12.30;99.90;;;;;;5046171;28;20265;-89
2022/10/17 00:41:29;;;;;;;6.40;4.07;;;12.20;99.90;;;;;;5052857;28;20223;-89
2022/10/17 00:44:00;;;;;;;8.10;5.07;;;12.30;99.90;;;;;;5048065;28;20276;-89
2022/10/17 00:46:28;;;;;;;8.10;3.90;;;12.20;99.90;;;;;;5053210;28;20272;-89
2022/10/17 00:48:56;;;;;;;5.03;3.37;;;12.20;99.90;;;;;;5053186;28;20238;-89
2022/10/17 00:51:31;;;;;;;3.80;3.07;;;12.20;99.90;;;;;;5052405;28;20682;-89
2022/10/17 00:53:58;;;;;;;6.10;3.20;;;12.30;99.90;;;;;;5053404;28;20230;-89
2022/10/17 00:56:26;;;;;;;3.83;3.17;;;12.50;99.90;;;;;;5051611;28;20691;-89
2022/10/17 00:58:54;;;;;;;6.27;3.33;;;12.50;99.90;;;;;;5053212;28;20223;-89
2022/10/17 01:01:22;;;;;;;4.50;3.30;;;12.40;99.90;;;;;;5048400;28;20211;-89
2022/10/17 01:03:49;;;;;;;4.57;3.20;;;12.50;99.90;;;;;;5052957;28;20246;-90
2022/10/17 01:06:17;;;;;;;5.73;3.47;;;12.40;99.90;;;;;;5047641;28;20219;-89
2022/10/17 01:08:44;;;;;;;4.30;3.30;;;12.40;99.90;;;;;;5042467;28;20199;-89
2022/10/17 01:11:22;;;;;;;3.43;2.97;;;12.40;99.90;;;;;;5052074;28;20569;-89
2022/10/17 01:13:54;;;;;;;4.10;2.93;;;12.50;99.90;;;;;;5052360;28;20277;-89
2022/10/17 01:16:32;;;;;;;3.83;3.43;;;12.40;99.90;;;;;;5052961;28;20230;-89
2022/10/17 01:19:09;;;;;;;8.87;3.73;;;12.30;99.90;;;;;;5045192;28;20249;-89
2022/10/17 01:21:49;;;;;;;8.70;6.40;;;12.40;99.90;;;;;;5052438;28;20281;-90
2022/10/17 01:24:41;;;;;;;7.57;5.70;;;12.60;99.90;;;;;;5046756;28;20231;-90
2022/10/17 01:27:34;;;;;;;5.60;3.90;;;12.40;99.90;;;;;;5051338;28;20286;-90
2022/10/17 01:30:16;;;;;;;7.20;4.47;;;12.60;99.90;;;;;;5048974;28;20282;-89
2022/10/17 01:32:49;;;;;;;6.70;4.70;;;12.40;99.90;;;;;;5052356;28;20209;-90
2022/10/17 01:35:22;;;;;;;6.07;4.20;;;12.30;99.90;;;;;;5049254;28;20254;-89
2022/10/17 01:37:55;;;;;;;3.50;2.90;;;12.40;99.90;;;;;;5052568;28;20571;-89
2022/10/17 01:40:28;;;;;;;6.10;3.50;;;12.30;99.90;;;;;;5041079;28;20326;-90
2022/10/17 01:42:59;;;;;;;4.67;3.37;;;12.40;99.90;;;;;;5034763;28;20207;-89
2022/10/17 01:45:32;;;;;;;4.13;3.50;;;12.30;99.90;;;;;;5040664;28;20215;-89
2022/10/17 01:48:06;;;;;;;3.33;3.03;;;12.30;99.90;;;;;;5051691;28;20199;-89
2022/10/17 01:50:36;;;;;;;4.20;3.10;;;12.30;99.90;;;;;;5041189;28;20261;-89
2022/10/17 01:53:06;;;;;;;4.83;3.50;;;12.20;99.90;;;;;;5039356;28;20284;-88
2022/10/17 01:55:37;;;;;;;9.40;3.73;;;12.20;99.90;;;;;;5038827;28;20288;-88
2022/10/17 01:58:09;;;;;;;4.53;3.60;;;12.30;99.90;;;;;;5051262;28;20282;-88
2022/10/17 02:00:38;;;;;;;3.93;3.43;;;12.30;99.90;;;;;;5046090;28;20314;-88
2022/10/17 02:03:09;;;;;;;4.17;3.43;;;12.30;99.90;;;;;;5046903;28;20199;-88
2022/10/17 02:05:39;;;;;;;3.73;3.40;;;12.50;99.90;;;;;;5047593;28;20299;-88
2022/10/17 02:08:07;;;;;;;6.00;3.33;;;12.20;99.90;;;;;;5048884;28;20217;-88
2022/10/17 02:10:39;;;;;;;4.17;3.13;;;12.30;99.90;;;;;;5044431;28;20223;-88
2022/10/17 02:13:16;;;;;;;4.37;3.20;;;12.30;99.90;;;;;;5051131;28;20752;-88
2022/10/17 02:16:12;;;;;;;6.70;3.00;;;12.10;99.90;;;;;;5046421;28;20237;-88
2022/10/17 02:19:07;;;;;;;5.23;3.27;;;12.10;99.90;;;;;;5041638;28;20211;-88
2022/10/17 02:21:43;;;;;;;3.23;2.93;;;11.90;99.90;;;;;;5036200;28;20203;-88
2022/10/17 02:24:18;;;;;;;4.33;3.57;;;11.90;99.90;;;;;;5051207;28;20301;-88
2022/10/17 02:26:51;;;;;;;4.93;3.43;;;12.00;99.90;;;;;;5050387;28;20207;-87
2022/10/17 02:29:21;;;;;;;3.00;2.80;;;12.20;99.90;;;;;;5051744;28;20575;-88
2022/10/17 02:31:54;;;;;;;2.93;2.73;;;12.00;99.90;;;;;;5051525;28;20203;-88
2022/10/17 02:34:27;;;;;;;3.73;3.00;;;11.90;99.90;;;;;;5051349;28;20226;-88
2022/10/17 02:36:57;;;;;;;3.30;3.00;;;12.00;99.90;;;;;;5051873;28;20233;-88
2022/10/17 02:39:26;;;;;;;3.10;2.80;;;11.90;99.90;;;;;;5051180;28;20297;-88
2022/10/17 02:41:56;;;;;;;2.80;2.40;;;11.90;99.90;;;;;;5051321;28;20649;-88
2022/10/17 02:44:24;;;;;;;13.63;2.80;;;11.60;99.90;;;;;;5051088;28;20250;-88
2022/10/17 02:46:55;;;;;;;3.57;3.07;;;11.70;99.90;;;;;;5051505;28;20238;-88
2022/10/17 02:49:28;;;;;;;32.63;4.07;;;11.70;99.90;;;;;;5051333;28;20207;-88
2022/10/17 02:52:02;;;;;;;22.03;3.83;;;11.30;99.90;;;;;;5050998;28;20207;-87
2022/10/17 02:54:36;;;;;;;31.67;4.03;;;11.30;99.90;;;;;;5051563;28;20247;-87
2022/10/17 02:57:08;;;;;;;5.53;3.10;;;11.50;99.90;;;;;;5051240;28;20566;-88
2022/10/17 02:59:37;;;;;;;4.87;2.90;;;11.60;99.90;;;;;;5051599;28;20610;-88
2022/10/17 03:02:05;;;;;;;4.83;3.13;;;11.60;99.90;;;;;;5051514;28;20278;-85
2022/10/17 03:04:34;;;;;;;3.03;2.70;;;11.60;99.90;;;;;;5051521;28;20306;-86
2022/10/17 03:07:01;;;;;;;4.60;3.50;;;11.70;99.90;;;;;;5051104;28;20226;-86
2022/10/17 03:09:27;;;;;;;3.97;3.30;;;11.70;99.90;;;;;;5051257;28;20203;-86
2022/10/17 03:11:54;;;;;;;3.40;3.10;;;11.80;99.90;;;;;;5050884;28;20191;-86
2022/10/17 03:14:21;;;;;;;3.40;3.03;;;11.70;99.90;;;;;;5051352;28;20219;-86
2022/10/17 03:16:48;;;;;;;3.33;3.03;;;11.60;99.90;;;;;;5051027;28;20207;-86
2022/10/17 03:19:15;;;;;;;3.90;3.60;;;11.50;99.90;;;;;;5051562;28;20221;-86
2022/10/17 03:21:43;;;;;;;4.80;4.13;;;11.30;99.90;;;;;;5051448;28;20234;-86
2022/10/17 03:24:13;;;;;;;20.90;3.70;;;11.20;99.90;;;;;;5051404;28;20237;-87
2022/10/17 03:26:40;;;;;;;4.80;3.20;;;11.30;99.90;;;;;;5051688;28;20218;-88
2022/10/17 03:29:07;;;;;;;4.03;3.50;;;11.30;99.90;;;;;;5052103;28;20206;-87
2022/10/17 03:31:34;;;;;;;4.07;3.13;;;11.40;99.90;;;;;;5054823;28;20575;-88
2022/10/17 03:34:02;;;;;;;4.17;3.30;;;11.30;99.90;;;;;;5055280;28;20219;-88
2022/10/17 03:36:29;;;;;;;6.70;3.93;;;11.20;99.90;;;;;;5055041;28;20221;-87
2022/10/17 03:38:57;;;;;;;4.07;3.63;;;11.20;99.90;;;;;;5055036;28;20238;-88
2022/10/17 03:41:24;;;;;;;3.93;3.53;;;11.20;99.90;;;;;;5054496;28;20715;-88
2022/10/17 03:43:53;;;;;;;4.57;3.83;;;11.20;99.90;;;;;;5054913;28;20302;-87
2022/10/17 03:46:20;;;;;;;5.90;4.10;;;11.30;99.90;;;;;;5054956;28;20210;-88
2022/10/17 03:48:47;;;;;;;10.00;3.67;;;11.30;99.90;;;;;;5054668;28;20281;-88
2022/10/17 03:51:14;;;;;;;3.87;3.37;;;11.50;99.90;;;;;;5054571;28;20286;-88
2022/10/17 03:53:41;;;;;;;4.27;3.53;;;11.50;99.90;;;;;;5054673;28;20230;-90
2022/10/17 03:56:14;;;;;;;5.07;3.77;;;11.50;99.90;;;;;;5048199;28;20592;-90
2022/10/17 03:58:41;;;;;;;6.50;3.70;;;11.60;99.90;;;;;;5052575;28;20604;-87
2022/10/17 04:01:10;;;;;;;4.80;3.43;;;11.70;99.90;;;;;;5052108;28;20336;-87
2022/10/17 04:03:37;;;;;;;4.27;3.20;;;11.70;99.90;;;;;;5048509;28;20612;-87
2022/10/17 04:06:05;;;;;;;3.73;3.40;;;11.60;99.90;;;;;;5034087;28;20250;-88
2022/10/17 04:08:33;;;;;;;3.97;3.20;;;11.60;99.90;;;;;;5034494;28;20637;-89
2022/10/17 04:11:00;;;;;;;3.73;3.40;;;11.90;99.90;;;;;;5033755;28;20286;-85
2022/10/17 04:13:29;;;;;;;4.13;3.63;;;11.90;99.90;;;;;;5033747;28;20668;-85
2022/10/17 04:15:56;;;;;;;5.10;3.57;;;11.90;99.90;;;;;;5033628;28;20377;-86
2022/10/17 04:18:23;;;;;;;3.53;2.93;;;11.90;99.90;;;;;;5033937;28;20242;-86
2022/10/17 04:20:51;;;;;;;3.53;3.23;;;11.90;99.90;;;;;;5032977;28;20258;-85
2022/10/17 04:23:18;;;;;;;5.63;3.50;;;11.90;99.90;;;;;;5050939;28;20214;-85
2022/10/17 04:25:44;;;;;;;5.30;4.00;;;12.00;99.90;;;;;;5053638;28;20211;-85
2022/10/17 04:28:12;;;;;;;3.63;3.30;;;11.90;99.90;;;;;;5050408;28;20214;-86
2022/10/17 04:30:40;;;;;;;6.23;4.40;;;12.20;99.90;;;;;;5053480;28;20566;-85
2022/10/17 04:33:07;;;;;;;8.77;4.27;;;12.30;99.90;;;;;;5045489;28;20283;-85
2022/10/17 04:35:34;;;;;;;5.17;3.63;;;12.30;99.90;;;;;;5033922;28;20508;-86
2022/10/17 04:38:01;;;;;;;7.83;4.50;;;12.70;99.90;;;;;;5034125;28;20215;-86
2022/10/17 04:40:27;;;;;;;4.50;4.07;;;12.90;99.90;;;;;;5032971;28;20224;-86
2022/10/17 04:42:54;;;;;;;5.50;3.53;;;12.90;99.90;;;;;;5033189;28;20741;-86
2022/10/17 04:45:21;;;;;;;4.67;3.43;;;12.90;99.90;;;;;;5033807;28;20233;-86
2022/10/17 04:47:49;;;;;;;4.47;3.57;;;13.00;99.90;;;;;;5033073;28;20215;-85
2022/10/17 04:50:16;;;;;;;3.90;3.50;;;13.10;99.90;;;;;;5033644;28;20290;-85
2022/10/17 04:52:43;;;;;;;4.47;3.57;;;13.20;99.90;;;;;;5033033;28;20215;-85
2022/10/17 04:55:10;;;;;;;7.50;3.83;;;13.50;99.90;;;;;;5033917;28;20232;-86
2022/10/17 04:57:37;;;;;;;4.53;3.60;;;13.40;99.90;;;;;;5053335;28;20282;-85
2022/10/17 05:00:05;;;;;;;7.03;3.97;;;13.50;99.90;;;;;;5053034;28;20235;-86
2022/10/17 05:02:31;;;;;;;4.57;3.70;;;13.60;99.90;;;;;;5050941;28;20592;-86
2022/10/17 05:05:00;;;;;;;5.80;4.10;;;13.50;99.90;;;;;;5052415;28;20238;-86
2022/10/17 05:07:27;;;;;;;5.43;3.83;;;13.60;99.90;;;;;;5052620;28;20687;-85
2022/10/17 05:09:53;;;;;;;6.43;3.80;;;13.60;99.90;;;;;;5052472;28;20286;-86
2022/10/17 05:12:20;;;;;;;4.17;3.77;;;13.70;99.90;;;;;;5047897;28;20226;-86
2022/10/17 05:14:47;;;;;;;4.87;4.40;;;13.80;99.90;;;;;;5052601;28;20229;-85
2022/10/17 05:17:14;;;;;;;4.63;4.23;;;13.70;99.90;;;;;;5053017;28;20244;-86
2022/10/17 05:19:41;;;;;;;7.17;4.70;;;13.80;99.90;;;;;;5042907;28;20237;-87
2022/10/17 05:22:09;;;;;;;6.43;4.40;;;13.70;99.90;;;;;;5032799;28;20216;-86
2022/10/17 05:24:36;;;;;;;6.67;4.13;;;13.70;99.90;;;;;;5032777;28;20238;-86
2022/10/17 05:27:03;;;;;;;5.47;4.07;;;13.60;99.90;;;;;;5032999;28;20215;-86
2022/10/17 05:29:30;;;;;;;4.80;3.90;;;13.70;99.90;;;;;;5033219;28;20215;-86
2022/10/17 05:31:56;;;;;;;6.13;3.47;;;13.80;99.90;;;;;;5032307;28;20287;-86
2022/10/17 05:34:24;;;;;;;5.73;4.00;;;14.10;99.90;;;;;;5032314;28;20756;-85
2022/10/17 05:36:51;;;;;;;3.83;3.43;;;14.00;99.90;;;;;;5032641;28;20219;-85
2022/10/17 05:39:19;;;;;;;7.60;4.10;;;14.20;99.90;;;;;;5032642;28;20560;-86
2022/10/17 05:41:46;;;;;;;4.45;3.28;;;14.10;99.90;;;;;;5031717;28;20271;-86
2022/10/17 05:44:13;;;;;;;5.10;3.10;;;14.20;99.90;;;;;;5032661;28;20238;-86
2022/10/17 05:46:40;;;;;;;5.78;3.45;;;14.40;99.90;;;;;;5032097;28;20211;-86
2022/10/17 05:49:09;;;;;;;6.33;3.87;;;14.50;99.90;;;;;;5032125;28;20215;-85
2022/10/17 05:51:36;;;;;;;5.40;3.83;;;14.30;99.90;;;;;;5032128;28;20208;-86
2022/10/17 05:54:05;;;;;;;5.50;4.93;;;14.50;99.90;;;;;;5050979;28;20309;-85
2022/10/17 05:56:34;;;;;;;5.65;4.45;;;14.30;99.90;;;;;;5050620;28;20218;-86
2022/10/17 05:59:01;;;;;;;4.72;4.32;;;14.10;99.90;;;;;;5049567;28;20234;-86
2022/10/17 06:01:28;;;;;;;4.40;4.00;;;14.00;99.90;;;;;;5051307;28;20258;-86
2022/10/17 06:03:55;;;;;;;5.25;4.10;;;14.20;99.90;;;;;;5037101;28;20247;-86
2022/10/17 06:06:22;;;;;;;4.60;3.70;;;13.90;99.90;;;;;;5031504;28;20294;-85
2022/10/17 06:08:49;;;;;;;7.45;3.53;;;14.10;99.90;;;;;;5032004;28;20652;-85
2022/10/17 06:11:16;;;;;;;4.95;3.75;;;14.40;99.90;;;;;;5031990;28;20288;-86
2022/10/17 06:13:44;;;;;;;4.28;3.75;;;14.40;99.90;;;;;;5032012;28;20231;-86
2022/10/17 06:16:11;;;;;;;5.53;3.30;;;14.20;99.90;;;;;;5032266;28;20242;-86
2022/10/17 06:18:38;;;;;;;5.13;3.50;;;14.10;99.90;;;;;;5032334;28;20215;-86
2022/10/17 06:21:07;;;;;;;4.13;3.53;;;14.20;99.90;;;;;;5031188;28;20223;-86
2022/10/17 06:23:34;;;;;;;9.35;3.70;;;14.10;99.90;;;;;;5035805;28;20222;-86
2022/10/17 06:26:01;;;;;;;5.27;3.63;;;14.10;99.90;;;;;;5049001;28;20286;-86
2022/10/17 06:28:28;;;;;;;6.65;3.40;;;14.00;99.90;;;;;;5036705;28;20285;-86
2022/10/17 06:30:57;;;;;;;6.73;4.03;;;14.30;99.90;;;;;;5042198;28;20195;-85
2022/10/17 06:33:24;;;;;;;6.03;4.38;;;14.20;99.90;;;;;;5038684;28;20296;-86
2022/10/17 06:35:52;;;;;;;5.90;4.30;;;14.20;99.90;;;;;;5047605;28;20209;-85
2022/10/17 06:38:19;;;;;;;6.53;4.78;;;14.30;99.90;;;;;;5043800;28;20210;-86
2022/10/17 06:40:46;;;;;;;5.18;3.90;;;14.40;99.90;;;;;;5050628;28;20219;-86
2022/10/17 06:43:13;;;;;;;5.28;3.70;;;14.60;99.90;;;;;;5036806;28;20239;-86
2022/10/17 06:45:40;;;;;;;5.40;3.67;;;14.70;99.90;;;;;;5031678;28;20218;-86
2022/10/17 06:48:09;;;;;;;5.55;3.90;;;14.90;99.90;;;;;;5031871;28;20287;-85
2022/10/17 06:50:36;;;;;;;6.60;3.83;;;15.00;99.90;;;;;;5031388;28;20217;-85
2022/10/17 06:53:02;;;;;;;4.93;3.85;;;15.30;99.90;;;;;;5031792;28;20290;-86
2022/10/17 06:55:31;;;;;;;4.43;3.72;;;15.40;99.90;;;;;;5033362;28;20227;-86
2022/10/17 06:57:58;;;;;;;4.28;3.40;;;15.80;99.90;;;;;;5047415;28;20279;-86
2022/10/17 07:00:25;;;;;;;6.43;3.65;;;15.80;99.90;;;;;;5047837;28;20256;-85
2022/10/17 07:02:52;;;;;;;5.88;3.70;;;15.90;99.90;;;;;;5047656;28;20215;-86
2022/10/17 07:05:21;;;;;;;4.85;3.72;;;16.00;99.90;;;;;;5032644;28;20458;-86
2022/10/17 07:07:48;;;;;;;5.90;3.70;;;15.90;99.90;;;;;;5035300;28;20235;-86
2022/10/17 07:10:15;;;;;;;5.63;3.60;;;16.00;99.90;;;;;;5034582;28;20210;-86
2022/10/17 07:12:43;;;;;;;8.15;4.18;;;15.90;99.90;;;;;;5035178;28;20739;-86
2022/10/17 07:15:11;;;;;;;5.90;4.70;;;16.10;99.90;;;;;;5035468;28;20232;-86
2022/10/17 07:17:37;;;;;;;5.13;4.18;;;16.20;99.90;;;;;;5034358;28;20206;-86
2022/10/17 07:20:05;;;;;;;8.15;4.47;;;16.10;99.90;;;;;;5034750;28;20215;-86
2022/10/17 07:22:34;;;;;;;5.32;3.55;;;16.20;99.90;;;;;;5034929;28;20223;-86
2022/10/17 07:25:00;;;;;;;4.35;3.65;;;16.40;99.90;;;;;;5035265;28;20227;-86
2022/10/17 07:27:27;;;;;;;4.00;3.60;;;16.40;99.90;;;;;;5034476;28;20299;-86
2022/10/17 07:29:54;;;;;;;4.47;3.05;;;16.50;99.90;;;;;;5034275;28;20218;-86
2022/10/17 07:32:21;;;;;;;4.18;3.35;;;16.60;99.90;;;;;;5035111;28;20673;-86
2022/10/17 07:34:48;;;;;;;4.22;3.53;;;16.50;99.90;;;;;;5034865;28;20307;-86
2022/10/17 07:37:15;;;;;;;6.78;3.75;;;16.80;99.90;;;;;;5045837;28;20230;-86
2022/10/17 07:39:43;;;;;;;3.90;3.50;;;17.20;99.90;;;;;;5053438;28;20401;-86
2022/10/17 07:42:10;;;;;;;3.95;3.55;;;17.30;99.90;;;;;;5053186;28;20310;-86
2022/10/17 07:44:37;;;;;;;4.97;3.60;;;17.50;99.90;;;;;;5053220;28;20732;-86
2022/10/17 07:47:04;;;;;;;4.15;3.10;;;17.70;99.90;;;;;;5040146;28;20219;-86
2022/10/17 07:49:31;;;;;;;5.50;3.42;;;17.60;99.90;;;;;;5034474;28;20217;-87
2022/10/17 07:51:58;;;;;;;8.38;3.80;;;17.60;99.90;;;;;;5033942;28;20204;-86
2022/10/17 07:54:25;;;;;;;4.03;2.80;;;17.60;99.90;;;;;;5036016;28;20472;-86
2022/10/17 07:56:53;;;;;;;6.97;3.75;;;18.00;99.90;;;;;;5034671;28;20732;-86
2022/10/17 07:59:20;;;;;;;5.82;3.13;;;18.10;99.90;;;;;;5034586;28;20295;-86
2022/10/17 08:01:47;;;;;;;5.40;3.20;;;18.00;99.90;;;;;;5033687;28;20507;-86
2022/10/17 08:04:15;;;;;;;6.03;3.58;;;17.90;99.90;;;;;;5034121;28;20231;-85
2022/10/17 08:06:42;;;;;;;6.57;3.67;;;17.90;99.90;;;;;;5034149;28;20230;-86
2022/10/17 08:09:09;;;;;;;6.53;3.25;;;17.90;99.90;;;;;;5033638;28;20235;-86
2022/10/17 08:11:36;;;;;;;5.03;3.10;;;17.70;99.90;;;;;;5033967;28;20214;-86
2022/10/17 08:14:04;;;;;;;6.57;3.58;;;17.70;99.90;;;;;;5053339;28;20230;-86
2022/10/17 08:16:31;;;;;;;5.60;3.33;;;17.70;99.90;;;;;;5048883;28;20215;-87
2022/10/17 08:18:58;;;;;;;3.75;3.35;;;17.70;99.90;;;;;;5053969;28;20203;-86
2022/10/17 08:21:24;;;;;;;3.50;3.00;;;17.80;99.90;;;;;;5033775;28;20227;-86
2022/10/17 08:23:51;;;;;;;3.75;3.40;;;18.20;99.90;;;;;;5034310;28;20243;-86
2022/10/17 08:26:19;;;;;;;4.70;3.70;;;18.40;99.90;;;;;;5034148;28;20218;-86
2022/10/17 08:28:47;;;;;;;6.05;3.58;;;18.60;99.90;;;;;;5034026;28;20212;-86
2022/10/17 08:31:18;;;;;;;9.57;3.85;;;18.60;99.90;;;;;;5033283;28;20279;-86
2022/10/17 08:33:46;;;;;;;6.60;3.17;;;18.80;99.90;;;;;;5033773;28;20262;-86
2022/10/17 08:36:15;;;;;;;3.30;3.00;;;18.70;99.90;;;;;;5034049;28;20208;-86
2022/10/17 08:38:42;;;;;;;3.17;2.63;;;18.70;99.90;;;;;;5033826;28;20207;-86
2022/10/17 08:41:15;;;;;;;4.10;3.25;;;18.90;99.90;;;;;;5033633;28;20214;-85
2022/10/17 08:44:04;;;;;;;5.05;3.13;;;19.20;99.90;;;;;;5033769;28;20232;-86
2022/10/17 08:46:36;;;;;;;8.45;3.28;;;19.10;99.90;;;;;;5033665;28;20875;-86
2022/10/17 08:49:09;;;;;;;5.93;3.40;;;19.20;99.90;;;;;;5033697;28;20211;-86
2022/10/17 08:51:47;;;;;;;3.90;3.38;;;19.40;99.90;;;;;;5033211;28;20644;-87
2022/10/17 08:54:20;;;;;;;6.72;3.10;;;19.60;99.90;;;;;;5033531;28;20227;-86
2022/10/17 08:56:50;;;;;;;5.97;3.22;;;19.60;99.90;;;;;;5033672;28;20632;-86
2022/10/17 08:59:20;;;;;;;4.40;2.95;;;19.60;99.90;;;;;;5033501;28;20283;-86
2022/10/17 09:01:54;;;;;;;6.05;2.95;;;19.50;99.90;;;;;;5033069;28;20223;-86
2022/10/17 09:04:40;;;;;;;4.05;3.03;;;19.50;99.90;;;;;;5033667;28;20239;-87
2022/10/17 09:07:13;;;;;;;2.70;2.50;;;19.60;99.90;;;;;;5033186;28;20226;-86
2022/10/17 09:09:47;;;;;;;4.35;3.22;;;19.90;99.90;;;;;;5033405;28;20214;-87
2022/10/17 09:12:20;;;;;;;4.30;2.92;;;19.70;99.90;;;;;;5033489;28;20635;-86
2022/10/17 09:15:04;;;;;;;4.90;2.90;;;19.70;99.90;;;;;;5033170;28;20310;-87
2022/10/17 09:17:40;;;;;;;4.60;3.15;;;19.80;99.90;;;;;;5033282;28;20208;-86
2022/10/17 09:20:12;;;;;;;4.60;3.05;;;19.80;99.90;;;;;;5033110;28;20278;-86
2022/10/17 09:22:44;;;;;;;6.72;3.20;;;19.90;99.90;;;;;;5032154;28;20315;-87
2022/10/17 09:25:15;;;;;;;4.47;2.60;;;20.00;99.90;;;;;;5032485;28;20223;-86
2022/10/17 09:27:45;;;;;;;3.60;2.75;;;19.90;99.90;;;;;;5032684;28;20600;-86
2022/10/17 09:30:33;;;;;;;6.28;3.10;;;20.00;99.90;;;;;;5032923;28;20290;-86
2022/10/17 09:33:11;;;;;;;4.38;2.97;;;20.20;99.90;;;;;;5032762;28;20211;-87
2022/10/17 09:35:40;;;;;;;4.07;3.15;;;20.10;99.90;;;;;;5032965;28;20211;-86
2022/10/17 09:38:12;;;;;;;3.97;2.90;;;20.20;99.90;;;;;;5032551;28;20257;-86
2022/10/17 09:40:40;;;;;;;4.50;2.85;;;20.30;99.90;;;;;;5032570;28;20583;-87
2022/10/17 09:43:10;;;;;;;5.35;2.95;;;20.30;99.90;;;;;;5032444;28;20720;-87
2022/10/17 09:45:46;;;;;;;6.07;2.90;;;20.50;99.90;;;;;;5032610;28;20664;-87
2022/10/17 09:48:20;;;;;;;6.68;3.10;;;20.70;99.90;;;;;;5032659;28;20206;-87
2022/10/17 09:50:47;;;;;;;3.80;2.88;;;20.80;99.90;;;;;;5033187;28;20290;-87
2022/10/17 09:53:20;;;;;;;5.32;2.85;;;20.90;99.90;;;;;;5032663;28;20211;-87
2022/10/17 09:55:49;;;;;;;6.78;3.05;;;20.90;99.90;;;;;;5032724;28;20282;-87
2022/10/17 09:58:16;;;;;;;5.43;2.95;;;21.00;99.90;;;;;;5032424;28;20202;-87
2022/10/17 10:00:46;;;;;;;4.05;3.03;;;21.20;99.90;;;;;;5032193;28;20221;-87
2022/10/17 10:03:19;;;;;;;6.65;3.15;;;21.30;99.90;;;;;;5031987;28;20228;-86
2022/10/17 10:06:01;;;;;;;4.00;3.20;;;21.30;99.90;;;;;;5032282;28;20220;-87
2022/10/17 10:08:30;;;;;;;4.97;3.10;;;21.20;99.90;;;;;;5034330;28;20287;-87
2022/10/17 10:11:03;;;;;;;7.18;3.20;;;21.10;99.90;;;;;;5051290;28;20213;-86
2022/10/17 10:13:31;;;;;;;5.72;2.80;;;21.10;99.90;;;;;;5050762;28;20269;-87
2022/10/17 10:16:19;;;;;;;4.53;3.25;;;20.90;99.90;;;;;;5050890;28;20201;-86
2022/10/17 10:18:48;;;;;;;4.32;2.88;;;21.20;99.90;;;;;;5040472;28;20246;-87
2022/10/17 10:21:18;;;;;;;5.22;2.85;;;21.50;1.00;;;;;;5030716;28;20215;-87
2022/10/17 10:24:02;;;;;;;7.95;2.83;;;21.70;8.60;;;;;;5036758;28;20226;-86
2022/10/17 10:26:33;;;;;;;5.18;3.33;;;21.90;1.00;;;;;;5037745;28;20214;-87
2022/10/17 10:29:27;;;;;;;5.05;3.20;;;22.00;1.00;;;;;;5046218;28;20289;-87
2022/10/17 10:31:55;;;;;;;5.25;2.90;;;22.30;99.90;;;;;;5061087;28;20195;-87
2022/10/17 10:34:26;;;;;;;4.43;2.78;;;22.50;1.00;;;;;;5046422;28;20226;-87
2022/10/17 10:36:59;;;;;;;3.45;2.95;;;22.70;1.00;;;;;;5030730;28;20239;-87
2022/10/17 10:39:43;;;;;;;4.50;3.38;;;22.70;97.00;;;;;;5050736;28;20206;-87
2022/10/17 10:42:30;;;;;;;3.70;2.53;;;22.80;99.90;;;;;;5054489;28;20613;-87
2022/10/17 10:45:01;;;;;;;4.78;3.28;;;22.90;1.00;;;;;;5050880;28;20761;-87
2022/10/17 10:47:29;;;;;;;5.00;2.70;;;23.00;1.00;;;;;;5036146;28;20683;-87
2022/10/17 10:50:18;;;;;;;3.60;2.83;;;23.20;1.00;;;;;;5035930;28;20214;-87
2022/10/17 10:52:50;;;;;;;6.47;2.90;;;23.40;99.90;;;;;;5035916;28;20297;-87
2022/10/17 10:55:23;;;;;;;5.40;3.17;;;23.70;97.00;;;;;;5035386;28;20277;-87
2022/10/17 10:57:55;;;;;;;6.55;3.03;;;23.60;99.90;;;;;;5035808;28;20221;-87
2022/10/17 11:00:27;;;;;;;4.95;2.88;;;23.40;99.90;;;;;;5035316;28;20218;-87
2022/10/17 11:03:01;;;;;;;4.32;2.70;;;23.40;1.00;;;;;;5035560;28;20233;-87
2022/10/17 11:05:41;;;;;;;3.65;2.72;;;23.30;1.00;;;;;;5035570;28;20211;-87
2022/10/17 11:08:19;;;;;;;5.10;2.80;;;23.00;1.00;;;;;;5036002;28;20215;-87
2022/10/17 11:10:57;;;;;;;4.55;3.03;;;23.10;1.00;;;;;;5033592;28;20203;-87
2022/10/17 11:13:30;;;;;;;6.68;3.20;;;23.20;1.00;;;;;;5035356;28;20233;-87
2022/10/17 11:16:01;;;;;;;4.22;3.08;;;23.50;99.90;;;;;;5035046;28;20684;-87
2022/10/17 11:18:33;;;;;;;7.13;2.92;;;23.50;1.00;;;;;;5042194;28;20217;-87
2022/10/17 11:21:09;;;;;;;6.38;2.90;;;23.80;1.00;;;;;;5055035;28;20286;-87
2022/10/17 11:23:42;;;;;;;4.88;2.97;;;23.90;1.00;;;;;;5051678;28;20230;-86
2022/10/17 11:26:24;;;;;;;13.30;8.68;;;24.00;1.00;;;;;;5050211;28;20284;-87
2022/10/17 11:28:51;;;;;;;4.75;3.28;;;24.40;1.00;;;;;;5034248;28;20280;-87
2022/10/17 11:31:20;;;;;;;3.35;3.05;;;24.60;99.90;;;;;;5035128;28;20217;-87
2022/10/17 11:33:50;;;;;;;6.78;2.67;;;24.70;99.90;;;;;;5035048;28;20219;-87
2022/10/17 11:36:22;;;;;;;4.47;3.20;;;24.50;99.90;;;;;;5035507;28;20211;-87
2022/10/17 11:38:51;;;;;;;5.53;3.17;;;24.40;17.80;;;;;;5034783;28;20211;-87
2022/10/17 11:41:23;;;;;;;5.15;2.75;;;24.60;1.00;;;;;;5035005;28;20306;-88
2022/10/17 11:43:54;;;;;;;5.13;2.97;;;24.30;1.00;;;;;;5034874;28;20231;-88
2022/10/17 11:46:40;;;;;;;4.47;2.90;;;24.60;1.00;;;;;;5034906;28;20237;-87
2022/10/17 11:49:12;;;;;;;5.50;2.90;;;25.10;1.00;;;;;;5034864;28;20577;-87
2022/10/17 11:51:45;;;;;;;3.10;2.70;;;25.30;1.00;;;;;;5034535;28;20215;-87
2022/10/17 11:54:16;;;;;;;5.15;2.58;;;25.30;99.90;;;;;;5034308;28;20762;-87
2022/10/17 11:56:49;;;;;;;9.68;2.95;;;25.70;1.00;;;;;;5048119;28;20209;-87
2022/10/17 11:59:41;;;;;;;2.95;2.50;;;25.80;99.90;;;;;;5050676;28;20286;-88
2022/10/17 12:02:12;;;;;;;3.92;2.63;;;25.80;99.90;;;;;;5046754;28;20286;-88
2022/10/17 12:04:51;;;;;;;4.20;2.70;;;25.60;99.90;;;;;;5051300;28;20821;-88
2022/10/17 12:07:28;;;;;;;6.47;2.70;;;25.40;65.00;;;;;;5053457;28;20217;-87
2022/10/17 12:10:00;;;;;;;6.47;3.10;;;25.40;99.90;;;;;;5034199;28;20217;-87
2022/10/17 12:12:30;;;;;;;5.78;2.60;;;25.90;1.00;;;;;;5034126;28;20216;-87
2022/10/17 12:15:28;;;;;;;3.42;2.60;;;26.20;1.00;;;;;;5033217;28;20635;-87
2022/10/17 12:17:59;;;;;;;4.65;2.80;;;26.40;1.00;;;;;;5033736;28;20216;-89
2022/10/17 12:20:55;;;;;;;6.72;3.35;;;26.00;1.00;;;;;;5034027;28;20249;-89
2022/10/17 12:23:27;;;;;;;2.78;2.50;;;25.70;1.00;;;;;;5033945;28;20761;-88
2022/10/17 12:25:58;;;;;;;3.80;2.53;;;25.40;1.00;;;;;;5043696;28;20203;-87
2022/10/17 12:28:30;;;;;;;4.90;2.80;;;25.30;1.00;;;;;;5046696;28;20216;-87
2022/10/17 12:31:01;;;;;;;6.00;3.03;;;25.20;1.00;;;;;;5032482;28;20212;-87
2022/10/17 12:33:35;;;;;;;5.50;2.60;;;25.10;1.00;;;;;;5033946;28;20689;-88
2022/10/17 12:36:43;;;;;;;8.70;3.20;;;24.80;1.00;;;;;;5033961;28;20227;-88
2022/10/17 12:39:52;;;;;;;3.70;2.53;;;24.70;1.00;;;;;;5029639;28;20285;-89
2022/10/17 12:42:47;;;;;;;6.38;2.65;;;24.40;1.00;;;;;;5046026;28;20287;-90
2022/10/17 12:45:49;;;;;;;4.90;2.85;;;24.30;1.00;;;;;;5030976;28;20667;-88
2022/10/17 12:49:00;;;;;;;5.20;3.10;;;24.20;1.00;;;;;;5029497;28;20231;-88
2022/10/17 12:51:29;;;;;;;9.75;4.22;;;24.20;1.00;;;;;;4972540;28;20584;-90
2022/10/17 12:53:59;;;;;;;8.20;3.45;;;24.30;1.00;;;;;;5034314;28;20243;-88
2022/10/17 12:56:39;;;;;;;6.93;3.90;;;24.30;1.00;;;;;;5051540;28;20207;-87
2022/10/17 12:59:14;;;;;;;6.95;3.30;;;24.20;1.00;;;;;;5050624;28;20207;-88
2022/10/17 13:01:46;;;;;;;8.98;3.78;;;24.10;1.00;;;;;;5050148;28;20242;-88
2022/10/17 13:04:13;;;;;;;4.82;3.17;;;24.10;1.00;;;;;;5052250;28;20853;-88
2022/10/17 13:06:46;;;;;;;6.70;3.45;;;24.20;1.00;;;;;;5047846;28;20218;-88
2022/10/17 13:09:25;;;;;;;6.13;3.58;;;24.10;1.00;;;;;;5034959;28;20665;-88